sensor_id;sensor_type;location;lat;lon;timestamp;pressure;altitude;pressure_sealevel;temperature;humidity
59435;BME280;45241;49.768;8.636;2023-02-01T00:01:07;100800.94;;;6.46;100.00
59435;BME280;45241;49.768;8.636;2023-02-01T00:03:33;100794.41;;;6.58;100.00
59435;BME280;45241;49.768;8.636;2023-02-01T00:05:59;100794.16;;;6.69;100.00
59435;BME280;45241;49.768;8.636;2023-02-01T00:08:28;100780.53;;;6.54;100.00
59435;BME280;45241;49.768;8.636;2023-02-01T00:11:08;100786.41;;;6.58;100.00
59435;BME280;45241;49.768;8.636;2023-02-01T00:13:34;100795.25;;;6.76;100.00
59435;BME280;45241;49.768;8.636;2023-02-01T00:16:18;100782.06;;;6.75;100.00
59435;BME280;45241;49.768;8.636;2023-02-01T00:18:49;100778.94;;;6.79;100.00
59435;BME280;45241;49.768;8.636;2023-02-01T00:21:17;100777.78;;;6.99;100.00
59435;BME280;45241;49.768;8.636;2023-02-01T00:23:43;100771.34;;;6.84;100.00
59435;BME280;45241;49.768;8.636;2023-02-01T00:26:30;100769.09;;;6.97;100.00
59435;BME280;45241;49.768;8.636;2023-02-01T00:28:56;100761.44;;;6.77;100.00
59435;BME280;45241;49.768;8.636;2023-02-01T00:31:21;100766.00;;;6.84;100.00
59435;BME280;45241;49.768;8.636;2023-02-01T00:33:47;100770.69;;;6.90;100.00
59435;BME280;45241;49.768;8.636;2023-02-01T00:36:13;100780.94;;;6.59;100.00
59435;BME280;45241;49.768;8.636;2023-02-01T00:38:38;100779.63;;;6.81;100.00
59435;BME280;45241;49.768;8.636;2023-02-01T00:41:11;100777.88;;;6.72;100.00
59435;BME280;45241;49.768;8.636;2023-02-01T00:43:37;100768.03;;;6.90;100.00
59435;BME280;45241;49.768;8.636;2023-02-01T00:46:02;100767.28;;;6.80;100.00
59435;BME280;45241;49.768;8.636;2023-02-01T00:48:28;100766.44;;;6.80;100.00
59435;BME280;45241;49.768;8.636;2023-02-01T00:50:54;100771.06;;;6.95;100.00
59435;BME280;45241;49.768;8.636;2023-02-01T00:53:19;100776.22;;;6.71;100.00
59435;BME280;45241;49.768;8.636;2023-02-01T00:55:48;100772.78;;;6.61;100.00
59435;BME280;45241;49.768;8.636;2023-02-01T00:58:14;100769.09;;;6.97;100.00
59435;BME280;45241;49.768;8.636;2023-02-01T01:00:39;100757.31;;;6.82;100.00
59435;BME280;45241;49.768;8.636;2023-02-01T01:03:04;100761.06;;;6.71;100.00
59435;BME280;45241;49.768;8.636;2023-02-01T01:05:50;100766.31;;;6.63;100.00
59435;BME280;45241;49.768;8.636;2023-02-01T01:08:16;100753.28;;;6.42;100.00
59435;BME280;45241;49.768;8.636;2023-02-01T01:10:42;100747.97;;;6.42;100.00
59435;BME280;45241;49.768;8.636;2023-02-01T01:13:08;100746.84;;;6.45;100.00
59435;BME280;45241;49.768;8.636;2023-02-01T01:15:38;100744.75;;;6.57;100.00
59435;BME280;45241;49.768;8.636;2023-02-01T01:18:03;100749.25;;;6.74;100.00
59435;BME280;45241;49.768;8.636;2023-02-01T01:20:29;100746.59;;;6.56;100.00
59435;BME280;45241;49.768;8.636;2023-02-01T01:22:54;100744.69;;;6.84;100.00
59435;BME280;45241;49.768;8.636;2023-02-01T01:25:20;100735.50;;;6.61;100.00
59435;BME280;45241;49.768;8.636;2023-02-01T01:27:47;100731.16;;;6.60;100.00
59435;BME280;45241;49.768;8.636;2023-02-01T01:30:13;100737.94;;;6.72;100.00
59435;BME280;45241;49.768;8.636;2023-02-01T01:32:38;100739.59;;;6.73;100.00
59435;BME280;45241;49.768;8.636;2023-02-01T01:35:05;100742.97;;;6.57;100.00
59435;BME280;45241;49.768;8.636;2023-02-01T01:37:31;100738.06;;;6.53;100.00
59435;BME280;45241;49.768;8.636;2023-02-01T01:39:57;100741.88;;;6.68;100.00
59435;BME280;45241;49.768;8.636;2023-02-01T01:42:22;100730.16;;;6.61;100.00
59435;BME280;45241;49.768;8.636;2023-02-01T01:45:02;100730.47;;;6.58;100.00
59435;BME280;45241;49.768;8.636;2023-02-01T01:47:35;100721.34;;;6.60;100.00
59435;BME280;45241;49.768;8.636;2023-02-01T01:50:03;100720.88;;;6.65;100.00
59435;BME280;45241;49.768;8.636;2023-02-01T01:52:30;100714.69;;;6.64;100.00
59435;BME280;45241;49.768;8.636;2023-02-01T01:54:57;100710.44;;;6.54;100.00
59435;BME280;45241;49.768;8.636;2023-02-01T01:57:24;100712.75;;;6.49;100.00
59435;BME280;45241;49.768;8.636;2023-02-01T02:00:04;100708.63;;;6.54;100.00
59435;BME280;45241;49.768;8.636;2023-02-01T02:02:30;100707.78;;;6.54;100.00
59435;BME280;45241;49.768;8.636;2023-02-01T02:04:56;100707.41;;;6.49;100.00
59435;BME280;45241;49.768;8.636;2023-02-01T02:07:26;100710.41;;;6.46;100.00
59435;BME280;45241;49.768;8.636;2023-02-01T02:09:54;100708.94;;;6.51;100.00
59435;BME280;45241;49.768;8.636;2023-02-01T02:12:19;100704.34;;;6.43;100.00
59435;BME280;45241;49.768;8.636;2023-02-01T02:14:45;100702.56;;;6.44;100.00
59435;BME280;45241;49.768;8.636;2023-02-01T02:26:03;100677.72;;;6.43;100.00
59435;BME280;45241;49.768;8.636;2023-02-01T02:32:30;100664.06;;;6.38;100.00
59435;BME280;45241;49.768;8.636;2023-02-01T02:35:16;100649.81;;;6.48;100.00
59435;BME280;45241;49.768;8.636;2023-02-01T02:38:00;100665.88;;;6.38;100.00
59435;BME280;45241;49.768;8.636;2023-02-01T02:40:33;100659.91;;;6.62;100.00
59435;BME280;45241;49.768;8.636;2023-02-01T02:43:14;100658.00;;;6.54;100.00
59435;BME280;45241;49.768;8.636;2023-02-01T02:46:21;100656.28;;;6.45;100.00
59435;BME280;45241;49.768;8.636;2023-02-01T02:49:15;100654.16;;;6.49;100.00
59435;BME280;45241;49.768;8.636;2023-02-01T02:51:54;100659.69;;;6.55;100.00
59435;BME280;45241;49.768;8.636;2023-02-01T02:54:42;100653.84;;;6.52;100.00
59435;BME280;45241;49.768;8.636;2023-02-01T02:57:23;100666.94;;;6.45;100.00
59435;BME280;45241;49.768;8.636;2023-02-01T03:00:12;100669.75;;;6.43;100.00
59435;BME280;45241;49.768;8.636;2023-02-01T03:02:58;100671.88;;;6.40;100.00
59435;BME280;45241;49.768;8.636;2023-02-01T03:05:46;100672.72;;;6.40;100.00
59435;BME280;45241;49.768;8.636;2023-02-01T03:08:22;100668.69;;;6.36;100.00
59435;BME280;45241;49.768;8.636;2023-02-01T03:11:04;100664.13;;;6.47;100.00
59435;BME280;45241;49.768;8.636;2023-02-01T03:18:52;100663.19;;;6.56;100.00
59435;BME280;45241;49.768;8.636;2023-02-01T03:21:27;100668.38;;;6.39;100.00
59435;BME280;45241;49.768;8.636;2023-02-01T03:23:57;100669.09;;;6.24;100.00
59435;BME280;45241;49.768;8.636;2023-02-01T03:26:26;100664.59;;;6.24;100.00
59435;BME280;45241;49.768;8.636;2023-02-01T03:28:57;100667.16;;;6.52;100.00
59435;BME280;45241;49.768;8.636;2023-02-01T03:31:27;100661.63;;;6.45;100.00
59435;BME280;45241;49.768;8.636;2023-02-01T03:33:53;100656.50;;;6.52;100.00
59435;BME280;45241;49.768;8.636;2023-02-01T03:36:31;100661.91;;;6.42;100.00
59435;BME280;45241;49.768;8.636;2023-02-01T03:39:05;100672.16;;;6.55;100.00
59435;BME280;45241;49.768;8.636;2023-02-01T03:41:37;100678.47;;;6.54;100.00
59435;BME280;45241;49.768;8.636;2023-02-01T03:44:19;100684.19;;;6.59;100.00
59435;BME280;45241;49.768;8.636;2023-02-01T03:46:52;100697.97;;;6.54;100.00
59435;BME280;45241;49.768;8.636;2023-02-01T03:49:26;100710.75;;;6.51;100.00
59435;BME280;45241;49.768;8.636;2023-02-01T03:51:54;100712.06;;;6.47;100.00
59435;BME280;45241;49.768;8.636;2023-02-01T03:54:22;100701.53;;;6.63;100.00
59435;BME280;45241;49.768;8.636;2023-02-01T03:56:50;100690.41;;;6.85;100.00
59435;BME280;45241;49.768;8.636;2023-02-01T03:59:16;100685.56;;;6.89;100.00
59435;BME280;45241;49.768;8.636;2023-02-01T04:01:42;100692.78;;;6.70;100.00
59435;BME280;45241;49.768;8.636;2023-02-01T04:04:07;100673.03;;;6.81;100.00
59435;BME280;45241;49.768;8.636;2023-02-01T04:06:34;100681.50;;;6.77;100.00
59435;BME280;45241;49.768;8.636;2023-02-01T04:08:59;100674.13;;;6.70;100.00
59435;BME280;45241;49.768;8.636;2023-02-01T04:11:25;100670.19;;;6.57;100.00
59435;BME280;45241;49.768;8.636;2023-02-01T04:13:52;100669.66;;;6.53;100.00
59435;BME280;45241;49.768;8.636;2023-02-01T04:16:17;100673.38;;;6.60;100.00
59435;BME280;45241;49.768;8.636;2023-02-01T04:18:43;100676.94;;;6.69;100.00
59435;BME280;45241;49.768;8.636;2023-02-01T04:21:08;100674.25;;;6.69;100.00
59435;BME280;45241;49.768;8.636;2023-02-01T04:23:33;100675.81;;;6.54;100.00
59435;BME280;45241;49.768;8.636;2023-02-01T04:26:00;100666.22;;;6.61;100.00
59435;BME280;45241;49.768;8.636;2023-02-01T04:28:26;100672.28;;;6.45;100.00
59435;BME280;45241;49.768;8.636;2023-02-01T04:30:52;100664.88;;;6.39;100.00
59435;BME280;45241;49.768;8.636;2023-02-01T04:33:17;100669.50;;;6.55;100.00
59435;BME280;45241;49.768;8.636;2023-02-01T04:35:42;100673.94;;;6.46;100.00
59435;BME280;45241;49.768;8.636;2023-02-01T04:38:08;100664.16;;;6.55;100.00
59435;BME280;45241;49.768;8.636;2023-02-01T04:40:33;100670.06;;;6.40;100.00
59435;BME280;45241;49.768;8.636;2023-02-01T04:43:00;100673.63;;;6.49;100.00
59435;BME280;45241;49.768;8.636;2023-02-01T04:45:25;100662.91;;;6.59;100.00
59435;BME280;45241;49.768;8.636;2023-02-01T04:47:51;100664.69;;;6.32;100.00
59435;BME280;45241;49.768;8.636;2023-02-01T04:50:16;100668.38;;;6.39;100.00
59435;BME280;45241;49.768;8.636;2023-02-01T04:52:41;100668.63;;;6.46;100.00
59435;BME280;45241;49.768;8.636;2023-02-01T04:55:07;100674.16;;;6.53;100.00
59435;BME280;45241;49.768;8.636;2023-02-01T04:57:33;100674.09;;;6.45;100.00
59435;BME280;45241;49.768;8.636;2023-02-01T04:59:58;100667.38;;;6.40;100.00
59435;BME280;45241;49.768;8.636;2023-02-01T05:02:24;100672.50;;;6.34;100.00
59435;BME280;45241;49.768;8.636;2023-02-01T05:04:49;100685.28;;;6.48;100.00
59435;BME280;45241;49.768;8.636;2023-02-01T05:07:15;100692.56;;;6.64;100.00
59435;BME280;45241;49.768;8.636;2023-02-01T05:09:41;100684.69;;;6.36;100.00
59435;BME280;45241;49.768;8.636;2023-02-01T05:12:06;100679.72;;;6.59;100.00
59435;BME280;45241;49.768;8.636;2023-02-01T05:14:51;100679.72;;;6.41;100.00
59435;BME280;45241;49.768;8.636;2023-02-01T05:17:17;100682.97;;;6.53;100.00
59435;BME280;45241;49.768;8.636;2023-02-01T05:19:42;100688.81;;;6.57;100.00
59435;BME280;45241;49.768;8.636;2023-02-01T05:22:07;100694.78;;;6.51;100.00
59435;BME280;45241;49.768;8.636;2023-02-01T05:24:33;100687.84;;;6.58;100.00
59435;BME280;45241;49.768;8.636;2023-02-01T05:26:58;100681.31;;;6.52;100.00
59435;BME280;45241;49.768;8.636;2023-02-01T05:29:23;100678.31;;;6.55;100.00
59435;BME280;45241;49.768;8.636;2023-02-01T05:31:48;100672.59;;;6.68;100.00
59435;BME280;45241;49.768;8.636;2023-02-01T05:34:16;100667.06;;;6.61;100.00
59435;BME280;45241;49.768;8.636;2023-02-01T05:36:42;100663.28;;;6.46;100.00
59435;BME280;45241;49.768;8.636;2023-02-01T05:39:07;100656.13;;;6.47;100.00
59435;BME280;45241;49.768;8.636;2023-02-01T05:41:32;100651.59;;;6.65;100.00
59435;BME280;45241;49.768;8.636;2023-02-01T05:43:58;100660.06;;;6.60;100.00
59435;BME280;45241;49.768;8.636;2023-02-01T05:46:23;100664.25;;;6.63;100.00
59435;BME280;45241;49.768;8.636;2023-02-01T05:48:48;100651.69;;;6.81;100.00
59435;BME280;45241;49.768;8.636;2023-02-01T05:51:14;100640.88;;;6.57;100.00
59435;BME280;45241;49.768;8.636;2023-02-01T05:53:39;100649.81;;;6.48;100.00
59435;BME280;45241;49.768;8.636;2023-02-01T05:56:05;100659.47;;;6.49;100.00
59435;BME280;45241;49.768;8.636;2023-02-01T05:58:31;100652.69;;;6.54;100.00
59435;BME280;45241;49.768;8.636;2023-02-01T06:00:59;100661.94;;;6.68;100.00
59435;BME280;45241;49.768;8.636;2023-02-01T06:03:24;100674.78;;;6.47;100.00
59435;BME280;45241;49.768;8.636;2023-02-01T06:05:50;100659.44;;;6.66;100.00
59435;BME280;45241;49.768;8.636;2023-02-01T06:08:15;100663.19;;;6.56;100.00
59435;BME280;45241;49.768;8.636;2023-02-01T06:10:42;100658.59;;;6.66;100.00
59435;BME280;45241;49.768;8.636;2023-02-01T06:13:07;100662.50;;;6.71;100.00
59435;BME280;45241;49.768;8.636;2023-02-01T06:15:33;100663.97;;;6.48;100.00
59435;BME280;45241;49.768;8.636;2023-02-01T06:17:59;100659.41;;;6.58;100.00
59435;BME280;45241;49.768;8.636;2023-02-01T06:20:24;100663.28;;;6.28;100.00
59435;BME280;45241;49.768;8.636;2023-02-01T06:22:50;100668.47;;;6.48;100.00
59435;BME280;45241;49.768;8.636;2023-02-01T06:25:15;100665.78;;;6.30;100.00
59435;BME280;45241;49.768;8.636;2023-02-01T06:27:42;100665.03;;;6.37;100.00
59435;BME280;45241;49.768;8.636;2023-02-01T06:30:10;100670.59;;;6.44;100.00
59435;BME280;45241;49.768;8.636;2023-02-01T06:32:35;100661.91;;;6.42;100.00
59435;BME280;45241;49.768;8.636;2023-02-01T06:35:01;100652.09;;;6.42;100.00
59435;BME280;45241;49.768;8.636;2023-02-01T06:37:26;100670.44;;;6.46;100.00
59435;BME280;45241;49.768;8.636;2023-02-01T06:39:54;100682.22;;;6.61;100.00
59435;BME280;45241;49.768;8.636;2023-02-01T06:42:19;100671.25;;;6.64;100.00
59435;BME280;45241;49.768;8.636;2023-02-01T06:44:45;100671.97;;;6.48;100.00
59435;BME280;45241;49.768;8.636;2023-02-01T06:47:10;100671.88;;;6.58;100.00
59435;BME280;45241;49.768;8.636;2023-02-01T06:49:35;100685.19;;;6.40;100.00
59435;BME280;45241;49.768;8.636;2023-02-01T06:52:01;100688.38;;;6.61;100.00
59435;BME280;45241;49.768;8.636;2023-02-01T06:54:27;100700.03;;;6.42;100.00
59435;BME280;45241;49.768;8.636;2023-02-01T06:56:52;100695.78;;;6.50;100.00
59435;BME280;45241;49.768;8.636;2023-02-01T06:59:17;100710.59;;;6.52;100.00
59435;BME280;45241;49.768;8.636;2023-02-01T07:01:43;100691.72;;;6.63;100.00
59435;BME280;45241;49.768;8.636;2023-02-01T07:04:10;100684.19;;;6.41;100.00
59435;BME280;45241;49.768;8.636;2023-02-01T07:06:36;100666.13;;;6.45;100.00
59435;BME280;45241;49.768;8.636;2023-02-01T07:09:02;100671.41;;;6.62;100.00
59435;BME280;45241;49.768;8.636;2023-02-01T07:11:27;100690.88;;;6.63;100.00
59435;BME280;45241;49.768;8.636;2023-02-01T07:13:53;100684.56;;;6.64;100.00
59435;BME280;45241;49.768;8.636;2023-02-01T07:16:19;100681.97;;;6.54;100.00
59435;BME280;45241;49.768;8.636;2023-02-01T07:18:45;100683.00;;;6.35;100.00
59435;BME280;45241;49.768;8.636;2023-02-01T07:21:10;100687.03;;;6.39;100.00
59435;BME280;45241;49.768;8.636;2023-02-01T07:23:37;100682.53;;;6.40;100.00
59435;BME280;45241;49.768;8.636;2023-02-01T07:26:04;100679.94;;;6.30;100.00
59435;BME280;45241;49.768;8.636;2023-02-01T07:28:32;100678.13;;;6.49;100.00
59435;BME280;45241;49.768;8.636;2023-02-01T07:31:09;100680.13;;;6.11;100.00
59435;BME280;45241;49.768;8.636;2023-02-01T07:33:34;100664.97;;;6.11;100.00
59435;BME280;45241;49.768;8.636;2023-02-01T07:36:02;100666.13;;;6.09;100.00
59435;BME280;45241;49.768;8.636;2023-02-01T07:38:28;100670.28;;;6.29;100.00
59435;BME280;45241;49.768;8.636;2023-02-01T07:41:00;100674.09;;;6.45;100.00
59435;BME280;45241;49.768;8.636;2023-02-01T07:43:27;100686.47;;;6.54;100.00
59435;BME280;45241;49.768;8.636;2023-02-01T07:45:53;100685.44;;;6.47;100.00
59435;BME280;45241;49.768;8.636;2023-02-01T07:48:20;100690.56;;;6.66;100.00
59435;BME280;45241;49.768;8.636;2023-02-01T07:50:46;100684.59;;;6.46;100.00
59435;BME280;45241;49.768;8.636;2023-02-01T07:53:11;100684.38;;;6.39;100.00
59435;BME280;45241;49.768;8.636;2023-02-01T07:55:40;100696.53;;;6.42;100.00
59435;BME280;45241;49.768;8.636;2023-02-01T07:58:05;100695.25;;;6.46;100.00
59435;BME280;45241;49.768;8.636;2023-02-01T08:00:31;100700.78;;;6.53;100.00
59435;BME280;45241;49.768;8.636;2023-02-01T08:03:15;100712.59;;;6.50;100.00
59435;BME280;45241;49.768;8.636;2023-02-01T08:05:40;100714.97;;;6.35;100.00
59435;BME280;45241;49.768;8.636;2023-02-01T08:08:06;100719.75;;;6.32;100.00
59435;BME280;45241;49.768;8.636;2023-02-01T08:10:32;100714.13;;;6.35;100.00
59435;BME280;45241;49.768;8.636;2023-02-01T08:12:59;100722.63;;;6.38;100.00
59435;BME280;45241;49.768;8.636;2023-02-01T08:15:26;100720.34;;;6.61;100.00
59435;BME280;45241;49.768;8.636;2023-02-01T08:17:52;100725.44;;;6.55;100.00
59435;BME280;45241;49.768;8.636;2023-02-01T08:20:18;100732.59;;;6.54;100.00
59435;BME280;45241;49.768;8.636;2023-02-01T08:22:44;100736.66;;;6.58;100.00
59435;BME280;45241;49.768;8.636;2023-02-01T08:25:10;100734.19;;;6.65;100.00
59435;BME280;45241;49.768;8.636;2023-02-01T08:27:36;100738.91;;;6.71;100.00
59435;BME280;45241;49.768;8.636;2023-02-01T08:30:02;100741.47;;;6.81;100.00
59435;BME280;45241;49.768;8.636;2023-02-01T08:32:28;100740.88;;;6.69;100.00
59435;BME280;45241;49.768;8.636;2023-02-01T08:34:53;100746.84;;;6.63;100.00
59435;BME280;45241;49.768;8.636;2023-02-01T08:37:19;100746.28;;;6.77;100.00
59435;BME280;45241;49.768;8.636;2023-02-01T08:39:44;100753.50;;;6.85;100.00
59435;BME280;45241;49.768;8.636;2023-02-01T08:42:10;100753.06;;;6.71;100.00
59435;BME280;45241;49.768;8.636;2023-02-01T08:44:55;100749.09;;;6.76;100.00
59435;BME280;45241;49.768;8.636;2023-02-01T08:47:21;100756.84;;;6.69;100.00
59435;BME280;45241;49.768;8.636;2023-02-01T08:49:47;100756.34;;;6.83;100.00
59435;BME280;45241;49.768;8.636;2023-02-01T08:52:12;100758.72;;;6.94;100.00
59435;BME280;45241;49.768;8.636;2023-02-01T08:54:38;100755.94;;;6.78;100.00
59435;BME280;45241;49.768;8.636;2023-02-01T08:57:05;100765.69;;;6.87;100.00
59435;BME280;45241;49.768;8.636;2023-02-01T08:59:30;100762.63;;;6.82;100.00
59435;BME280;45241;49.768;8.636;2023-02-01T09:01:55;100761.94;;;6.80;100.00
59435;BME280;45241;49.768;8.636;2023-02-01T09:04:21;100770.63;;;6.82;100.00
59435;BME280;45241;49.768;8.636;2023-02-01T09:06:46;100770.34;;;6.85;100.00
59435;BME280;45241;49.768;8.636;2023-02-01T09:09:11;100760.72;;;6.92;100.00
59435;BME280;45241;49.768;8.636;2023-02-01T09:11:37;100766.28;;;6.99;100.00
59435;BME280;45241;49.768;8.636;2023-02-01T09:14:02;100763.69;;;6.89;100.00
59435;BME280;45241;49.768;8.636;2023-02-01T09:16:27;100774.16;;;7.00;100.00
59435;BME280;45241;49.768;8.636;2023-02-01T09:18:53;100766.88;;;6.93;100.00
59435;BME280;45241;49.768;8.636;2023-02-01T09:21:18;100764.34;;;6.83;100.00
59435;BME280;45241;49.768;8.636;2023-02-01T09:23:43;100762.34;;;6.67;100.00
59435;BME280;45241;49.768;8.636;2023-02-01T09:26:09;100762.94;;;6.79;100.00
59435;BME280;45241;49.768;8.636;2023-02-01T09:28:36;100769.28;;;6.78;100.00
59435;BME280;45241;49.768;8.636;2023-02-01T09:31:01;100764.63;;;6.80;100.00
59435;BME280;45241;49.768;8.636;2023-02-01T09:33:28;100765.69;;;6.87;100.00
59435;BME280;45241;49.768;8.636;2023-02-01T09:36:00;100781.06;;;7.11;100.00
59435;BME280;45241;49.768;8.636;2023-02-01T09:38:26;100790.91;;;7.11;100.00
59435;BME280;45241;49.768;8.636;2023-02-01T09:40:53;100796.44;;;7.17;100.00
59435;BME280;45241;49.768;8.636;2023-02-01T09:46:30;100827.28;;;7.20;100.00
59435;BME280;45241;49.768;8.636;2023-02-01T09:49:00;100834.00;;;7.24;100.00
59435;BME280;45241;49.768;8.636;2023-02-01T09:51:35;100836.69;;;7.32;100.00
59435;BME280;45241;49.768;8.636;2023-02-01T09:54:12;100841.91;;;7.16;100.00
59435;BME280;45241;49.768;8.636;2023-02-01T09:56:44;100848.59;;;7.20;100.00
59435;BME280;45241;49.768;8.636;2023-02-01T09:59:43;100854.50;;;7.23;100.00
59435;BME280;45241;49.768;8.636;2023-02-01T10:02:16;100847.59;;;7.21;100.00
59435;BME280;45241;49.768;8.636;2023-02-01T10:04:43;100845.38;;;7.34;100.00
59435;BME280;45241;49.768;8.636;2023-02-01T10:07:21;100846.44;;;7.41;100.00
59435;BME280;45241;49.768;8.636;2023-02-01T10:10:08;100847.00;;;7.27;100.00
59435;BME280;45241;49.768;8.636;2023-02-01T10:15:24;100840.13;;;7.42;99.61
59435;BME280;45241;49.768;8.636;2023-02-01T10:20:56;100839.09;;;7.35;94.75
59435;BME280;45241;49.768;8.636;2023-02-01T10:26:16;100834.88;;;7.32;96.77
59435;BME280;45241;49.768;8.636;2023-02-01T10:28:44;100846.09;;;7.36;94.69
59435;BME280;45241;49.768;8.636;2023-02-01T10:31:12;100827.19;;;7.55;94.93
59435;BME280;45241;49.768;8.636;2023-02-01T10:33:40;100823.06;;;7.35;89.75
59435;BME280;45241;49.768;8.636;2023-02-01T10:36:16;100816.53;;;7.55;88.65
59435;BME280;45241;49.768;8.636;2023-02-01T10:38:45;100807.28;;;7.42;91.27
59435;BME280;45241;49.768;8.636;2023-02-01T10:41:20;100806.13;;;7.44;94.72
59435;BME280;45241;49.768;8.636;2023-02-01T10:43:50;100803.84;;;7.57;89.81
59435;BME280;45241;49.768;8.636;2023-02-01T10:46:18;100800.19;;;7.58;89.19
59435;BME280;45241;49.768;8.636;2023-02-01T10:48:44;100802.00;;;7.50;88.55
59435;BME280;45241;49.768;8.636;2023-02-01T10:51:23;100801.03;;;7.59;85.63
59435;BME280;45241;49.768;8.636;2023-02-01T10:54:03;100793.25;;;7.74;86.29
59435;BME280;45241;49.768;8.636;2023-02-01T10:56:38;100787.59;;;7.69;83.35
59435;BME280;45241;49.768;8.636;2023-02-01T10:59:15;100782.41;;;7.67;83.00
59435;BME280;45241;49.768;8.636;2023-02-01T11:01:42;100769.63;;;7.79;83.10
59435;BME280;45241;49.768;8.636;2023-02-01T11:04:11;100764.16;;;7.88;82.52
59435;BME280;45241;49.768;8.636;2023-02-01T11:06:40;100759.28;;;7.84;81.69
59435;BME280;45241;49.768;8.636;2023-02-01T11:14:18;100736.03;;;7.68;82.56
59435;BME280;45241;49.768;8.636;2023-02-01T11:16:49;100747.59;;;7.77;79.84
59435;BME280;45241;49.768;8.636;2023-02-01T11:19:16;100742.06;;;7.70;82.42
59435;BME280;45241;49.768;8.636;2023-02-01T11:21:43;100747.22;;;7.64;81.55
59435;BME280;45241;49.768;8.636;2023-02-01T11:24:22;100746.38;;;7.63;81.04
59435;BME280;45241;49.768;8.636;2023-02-01T11:26:49;100753.88;;;7.68;81.82
59435;BME280;45241;49.768;8.636;2023-02-01T11:29:17;100746.44;;;7.79;81.93
59435;BME280;45241;49.768;8.636;2023-02-01T11:31:45;100752.81;;;7.52;81.69
59435;BME280;45241;49.768;8.636;2023-02-01T11:34:24;100750.06;;;7.70;78.19
59435;BME280;45241;49.768;8.636;2023-02-01T11:36:50;100757.09;;;7.79;79.81
59435;BME280;45241;49.768;8.636;2023-02-01T11:42:14;100736.44;;;7.81;79.55
59435;BME280;45241;49.768;8.636;2023-02-01T11:44:42;100747.56;;;7.69;79.36
59435;BME280;45241;49.768;8.636;2023-02-01T11:47:31;100750.28;;;7.77;79.07
59435;BME280;45241;49.768;8.636;2023-02-01T11:50:12;100738.59;;;7.78;80.04
59435;BME280;45241;49.768;8.636;2023-02-01T11:55:33;100752.00;;;7.94;79.31
59435;BME280;45241;49.768;8.636;2023-02-01T11:58:28;100747.09;;;7.81;78.62
59435;BME280;45241;49.768;8.636;2023-02-01T12:01:10;100749.81;;;7.98;78.75
59435;BME280;45241;49.768;8.636;2023-02-01T12:06:52;100742.66;;;7.98;79.41
59435;BME280;45241;49.768;8.636;2023-02-01T12:11:59;100737.72;;;8.19;78.85
59435;BME280;45241;49.768;8.636;2023-02-01T12:14:55;100732.88;;;8.15;78.69
59435;BME280;45241;49.768;8.636;2023-02-01T12:17:36;100729.19;;;8.16;79.14
59435;BME280;45241;49.768;8.636;2023-02-01T12:29:20;100718.31;;;8.09;77.99
59435;BME280;45241;49.768;8.636;2023-02-01T12:34:49;100710.31;;;8.01;77.72
59435;BME280;45241;49.768;8.636;2023-02-01T12:42:41;100709.44;;;7.93;77.17
59435;BME280;45241;49.768;8.636;2023-02-01T12:45:17;100705.69;;;8.28;78.23
59435;BME280;45241;49.768;8.636;2023-02-01T12:50:53;100697.47;;;8.13;78.40
59435;BME280;45241;49.768;8.636;2023-02-01T12:55:53;100696.13;;;8.09;77.48
59435;BME280;45241;49.768;8.636;2023-02-01T12:58:40;100682.63;;;8.18;78.05
59435;BME280;45241;49.768;8.636;2023-02-01T13:04:02;100653.75;;;8.14;77.28
59435;BME280;45241;49.768;8.636;2023-02-01T13:06:32;100668.75;;;8.07;77.36
59435;BME280;45241;49.768;8.636;2023-02-01T13:09:05;100664.91;;;8.09;76.32
59435;BME280;45241;49.768;8.636;2023-02-01T13:11:37;100647.41;;;8.15;75.96
59435;BME280;45241;49.768;8.636;2023-02-01T13:16:59;100647.06;;;8.02;77.42
59435;BME280;45241;49.768;8.636;2023-02-01T13:19:37;100640.06;;;8.01;77.48
59435;BME280;45241;49.768;8.636;2023-02-01T13:22:15;100642.22;;;8.05;77.85
59435;BME280;45241;49.768;8.636;2023-02-01T13:24:45;100645.53;;;7.91;78.12
59435;BME280;45241;49.768;8.636;2023-02-01T13:27:13;100642.53;;;7.94;78.15
59435;BME280;45241;49.768;8.636;2023-02-01T13:29:53;100638.88;;;7.95;78.85
59435;BME280;45241;49.768;8.636;2023-02-01T13:32:39;100639.38;;;8.07;77.70
59435;BME280;45241;49.768;8.636;2023-02-01T13:37:50;100646.72;;;7.88;78.43
59435;BME280;45241;49.768;8.636;2023-02-01T13:40:35;100646.19;;;7.85;79.10
59435;BME280;45241;49.768;8.636;2023-02-01T13:43:06;100648.03;;;7.93;78.07
59435;BME280;45241;49.768;8.636;2023-02-01T13:45:35;100661.22;;;7.94;78.06
59435;BME280;45241;49.768;8.636;2023-02-01T13:48:04;100659.06;;;7.98;78.49
59435;BME280;45241;49.768;8.636;2023-02-01T13:50:33;100667.53;;;7.85;79.10
59435;BME280;45241;49.768;8.636;2023-02-01T13:53:14;100659.53;;;7.77;79.10
59435;BME280;45241;49.768;8.636;2023-02-01T13:55:43;100659.56;;;7.93;79.00
59435;BME280;45241;49.768;8.636;2023-02-01T13:58:15;100660.69;;;7.82;78.79
59435;BME280;45241;49.768;8.636;2023-02-01T14:00:42;100658.53;;;7.86;79.59
59435;BME280;45241;49.768;8.636;2023-02-01T14:03:21;100660.06;;;7.88;78.58
59435;BME280;45241;49.768;8.636;2023-02-01T14:08:36;100648.69;;;7.86;79.55
59435;BME280;45241;49.768;8.636;2023-02-01T14:11:02;100649.56;;;8.03;78.58
59435;BME280;45241;49.768;8.636;2023-02-01T14:13:39;100646.06;;;8.03;77.95
59435;BME280;45241;49.768;8.636;2023-02-01T14:26:24;100661.91;;;7.88;77.99
59435;BME280;45241;49.768;8.636;2023-02-01T14:29:01;100676.56;;;7.92;78.72
59435;BME280;45241;49.768;8.636;2023-02-01T14:31:33;100674.53;;;7.78;79.29
59435;BME280;45241;49.768;8.636;2023-02-01T14:34:02;100658.06;;;7.90;79.87
59435;BME280;45241;49.768;8.636;2023-02-01T14:37:06;100648.53;;;7.88;79.75